sensor_id;sensor_type;location;lat;lon;timestamp;temperature;humidity
57088;DHT22;42965;52.846;6.614;2022-11-15T00:00:15;6.90;99.90
57088;DHT22;42965;52.846;6.614;2022-11-15T00:03:00;7.00;99.90
57088;DHT22;42965;52.846;6.614;2022-11-15T00:05:46;7.10;99.90
57088;DHT22;42965;52.846;6.614;2022-11-15T00:08:32;7.20;99.90
57088;DHT22;42965;52.846;6.614;2022-11-15T00:11:16;7.30;99.90
57088;DHT22;42965;52.846;6.614;2022-11-15T00:14:02;7.30;99.90
57088;DHT22;42965;52.846;6.614;2022-11-15T00:16:48;7.40;99.90
57088;DHT22;42965;52.846;6.614;2022-11-15T00:19:32;7.50;99.90
57088;DHT22;42965;52.846;6.614;2022-11-15T00:22:17;7.50;99.90
57088;DHT22;42965;52.846;6.614;2022-11-15T00:25:03;7.50;99.90
57088;DHT22;42965;52.846;6.614;2022-11-15T00:27:47;7.60;99.90
57088;DHT22;42965;52.846;6.614;2022-11-15T00:30:32;7.60;99.90
57088;DHT22;42965;52.846;6.614;2022-11-15T00:33:17;7.60;99.90
57088;DHT22;42965;52.846;6.614;2022-11-15T00:36:08;7.60;99.90
57088;DHT22;42965;52.846;6.614;2022-11-15T00:38:56;7.70;99.90
57088;DHT22;42965;52.846;6.614;2022-11-15T00:41:41;7.60;99.90
57088;DHT22;42965;52.846;6.614;2022-11-15T00:44:26;7.60;99.90
57088;DHT22;42965;52.846;6.614;2022-11-15T00:47:10;7.70;99.90
57088;DHT22;42965;52.846;6.614;2022-11-15T00:49:57;7.70;99.90
57088;DHT22;42965;52.846;6.614;2022-11-15T00:52:43;7.70;99.90
57088;DHT22;42965;52.846;6.614;2022-11-15T00:55:28;7.70;99.90
57088;DHT22;42965;52.846;6.614;2022-11-15T00:58:13;7.70;99.90
57088;DHT22;42965;52.846;6.614;2022-11-15T01:01:12;7.70;99.90
57088;DHT22;42965;52.846;6.614;2022-11-15T01:03:57;7.70;99.90
57088;DHT22;42965;52.846;6.614;2022-11-15T01:06:42;7.70;99.90
57088;DHT22;42965;52.846;6.614;2022-11-15T01:09:27;7.70;99.90
57088;DHT22;42965;52.846;6.614;2022-11-15T01:12:11;7.70;99.90
57088;DHT22;42965;52.846;6.614;2022-11-15T01:14:56;7.80;99.90
57088;DHT22;42965;52.846;6.614;2022-11-15T01:17:41;7.80;99.90
57088;DHT22;42965;52.846;6.614;2022-11-15T01:20:25;7.80;99.90
57088;DHT22;42965;52.846;6.614;2022-11-15T01:23:10;7.80;99.90
57088;DHT22;42965;52.846;6.614;2022-11-15T01:25:59;7.80;99.90
57088;DHT22;42965;52.846;6.614;2022-11-15T01:28:44;7.80;99.90
57088;DHT22;42965;52.846;6.614;2022-11-15T01:31:29;7.80;99.90
57088;DHT22;42965;52.846;6.614;2022-11-15T01:34:14;7.80;99.90
57088;DHT22;42965;52.846;6.614;2022-11-15T01:37:00;7.80;99.90
57088;DHT22;42965;52.846;6.614;2022-11-15T01:39:45;7.80;99.90
57088;DHT22;42965;52.846;6.614;2022-11-15T01:42:29;7.80;99.90
57088;DHT22;42965;52.846;6.614;2022-11-15T01:45:15;7.80;99.90
57088;DHT22;42965;52.846;6.614;2022-11-15T01:48:00;7.80;99.90
57088;DHT22;42965;52.846;6.614;2022-11-15T01:50:46;7.80;99.90
57088;DHT22;42965;52.846;6.614;2022-11-15T01:53:32;7.90;99.90
57088;DHT22;42965;52.846;6.614;2022-11-15T01:56:25;7.90;99.90
57088;DHT22;42965;52.846;6.614;2022-11-15T01:59:11;7.80;99.90
57088;DHT22;42965;52.846;6.614;2022-11-15T02:01:56;7.90;99.90
57088;DHT22;42965;52.846;6.614;2022-11-15T02:04:43;7.90;99.90
57088;DHT22;42965;52.846;6.614;2022-11-15T02:07:31;7.90;99.90
57088;DHT22;42965;52.846;6.614;2022-11-15T02:10:21;7.90;99.90
57088;DHT22;42965;52.846;6.614;2022-11-15T02:13:06;7.90;99.90
57088;DHT22;42965;52.846;6.614;2022-11-15T02:20:04;8.00;99.90
57088;DHT22;42965;52.846;6.614;2022-11-15T02:25:51;8.00;99.90
57088;DHT22;42965;52.846;6.614;2022-11-15T02:29:10;8.00;99.90
57088;DHT22;42965;52.846;6.614;2022-11-15T02:32:08;8.00;99.90
57088;DHT22;42965;52.846;6.614;2022-11-15T02:37:59;8.10;99.90
57088;DHT22;42965;52.846;6.614;2022-11-15T02:41:01;8.10;99.90
57088;DHT22;42965;52.846;6.614;2022-11-15T02:43:56;8.10;99.90
57088;DHT22;42965;52.846;6.614;2022-11-15T02:49:57;8.10;99.90
57088;DHT22;42965;52.846;6.614;2022-11-15T02:52:48;8.20;99.90
57088;DHT22;42965;52.846;6.614;2022-11-15T02:55:40;8.20;99.90
57088;DHT22;42965;52.846;6.614;2022-11-15T03:07:16;8.20;99.90
57088;DHT22;42965;52.846;6.614;2022-11-15T03:10:08;8.20;99.90
57088;DHT22;42965;52.846;6.614;2022-11-15T03:13:18;8.20;99.90
57088;DHT22;42965;52.846;6.614;2022-11-15T03:19:15;8.20;99.90
57088;DHT22;42965;52.846;6.614;2022-11-15T03:22:04;8.20;99.90
57088;DHT22;42965;52.846;6.614;2022-11-15T03:24:58;8.30;99.90
57088;DHT22;42965;52.846;6.614;2022-11-15T03:27:48;8.30;99.90
57088;DHT22;42965;52.846;6.614;2022-11-15T03:30:36;8.30;99.90
57088;DHT22;42965;52.846;6.614;2022-11-15T03:33:22;8.30;99.90
57088;DHT22;42965;52.846;6.614;2022-11-15T03:36:06;8.30;99.90
57088;DHT22;42965;52.846;6.614;2022-11-15T03:38:54;8.30;99.90
57088;DHT22;42965;52.846;6.614;2022-11-15T03:48:05;8.30;99.90
57088;DHT22;42965;52.846;6.614;2022-11-15T03:50:52;8.40;99.90
57088;DHT22;42965;52.846;6.614;2022-11-15T03:53:38;8.40;99.90
57088;DHT22;42965;52.846;6.614;2022-11-15T03:56:24;8.40;99.90
57088;DHT22;42965;52.846;6.614;2022-11-15T03:59:09;8.40;99.90
57088;DHT22;42965;52.846;6.614;2022-11-15T04:01:54;8.40;99.90
57088;DHT22;42965;52.846;6.614;2022-11-15T04:04:39;8.40;99.90
57088;DHT22;42965;52.846;6.614;2022-11-15T04:07:24;8.50;99.90
57088;DHT22;42965;52.846;6.614;2022-11-15T04:10:13;8.50;99.90
57088;DHT22;42965;52.846;6.614;2022-11-15T04:12:57;8.50;99.90
57088;DHT22;42965;52.846;6.614;2022-11-15T04:15:45;8.50;99.90
57088;DHT22;42965;52.846;6.614;2022-11-15T04:18:30;8.60;99.90
57088;DHT22;42965;52.846;6.614;2022-11-15T04:21:15;8.60;99.90
57088;DHT22;42965;52.846;6.614;2022-11-15T04:24:19;8.60;99.90
57088;DHT22;42965;52.846;6.614;2022-11-15T04:27:03;8.70;99.90
57088;DHT22;42965;52.846;6.614;2022-11-15T04:29:48;8.70;99.90
57088;DHT22;42965;52.846;6.614;2022-11-15T04:32:33;8.70;99.90
57088;DHT22;42965;52.846;6.614;2022-11-15T04:35:17;8.70;99.90
57088;DHT22;42965;52.846;6.614;2022-11-15T04:38:04;8.80;99.90
57088;DHT22;42965;52.846;6.614;2022-11-15T04:40:49;8.80;99.90
57088;DHT22;42965;52.846;6.614;2022-11-15T04:43:33;8.80;99.90
57088;DHT22;42965;52.846;6.614;2022-11-15T04:46:18;8.90;99.90
57088;DHT22;42965;52.846;6.614;2022-11-15T04:49:02;8.90;99.90
57088;DHT22;42965;52.846;6.614;2022-11-15T04:51:47;9.00;99.90
57088;DHT22;42965;52.846;6.614;2022-11-15T04:54:33;9.00;99.90
57088;DHT22;42965;52.846;6.614;2022-11-15T04:57:18;9.10;99.90
57088;DHT22;42965;52.846;6.614;2022-11-15T05:00:08;9.10;99.90
57088;DHT22;42965;52.846;6.614;2022-11-15T05:02:53;9.20;99.90
57088;DHT22;42965;52.846;6.614;2022-11-15T05:05:58;9.20;99.90
57088;DHT22;42965;52.846;6.614;2022-11-15T05:08:43;9.30;99.90
57088;DHT22;42965;52.846;6.614;2022-11-15T05:11:28;9.30;99.90
57088;DHT22;42965;52.846;6.614;2022-11-15T05:14:13;9.30;99.90
57088;DHT22;42965;52.846;6.614;2022-11-15T05:16:58;9.30;99.90
57088;DHT22;42965;52.846;6.614;2022-11-15T05:19:43;9.40;99.90
57088;DHT22;42965;52.846;6.614;2022-11-15T05:22:28;9.40;99.90
57088;DHT22;42965;52.846;6.614;2022-11-15T05:25:13;9.40;99.90
57088;DHT22;42965;52.846;6.614;2022-11-15T05:27:58;9.40;99.90
57088;DHT22;42965;52.846;6.614;2022-11-15T05:30:43;9.50;99.90
57088;DHT22;42965;52.846;6.614;2022-11-15T05:33:28;9.50;99.90
57088;DHT22;42965;52.846;6.614;2022-11-15T05:36:33;9.50;99.90
57088;DHT22;42965;52.846;6.614;2022-11-15T05:39:19;9.60;99.90
57088;DHT22;42965;52.846;6.614;2022-11-15T05:42:10;9.60;99.90
57088;DHT22;42965;52.846;6.614;2022-11-15T05:44:56;9.60;99.90
57088;DHT22;42965;52.846;6.614;2022-11-15T05:47:41;9.70;99.90
57088;DHT22;42965;52.846;6.614;2022-11-15T05:50:28;9.70;99.90
57088;DHT22;42965;52.846;6.614;2022-11-15T05:53:16;9.80;99.90
57088;DHT22;42965;52.846;6.614;2022-11-15T05:56:03;9.80;99.90
57088;DHT22;42965;52.846;6.614;2022-11-15T05:58:52;9.80;99.90
57088;DHT22;42965;52.846;6.614;2022-11-15T06:01:38;9.90;99.90
57088;DHT22;42965;52.846;6.614;2022-11-15T06:04:24;9.90;99.90
57088;DHT22;42965;52.846;6.614;2022-11-15T06:07:13;10.00;99.90
57088;DHT22;42965;52.846;6.614;2022-11-15T06:09:58;10.00;99.90
57088;DHT22;42965;52.846;6.614;2022-11-15T06:12:42;10.10;99.90
57088;DHT22;42965;52.846;6.614;2022-11-15T06:15:28;10.10;99.90
57088;DHT22;42965;52.846;6.614;2022-11-15T06:18:13;10.10;99.90
57088;DHT22;42965;52.846;6.614;2022-11-15T06:20:59;10.10;99.90
57088;DHT22;42965;52.846;6.614;2022-11-15T06:23:44;10.20;99.90
57088;DHT22;42965;52.846;6.614;2022-11-15T06:26:29;10.20;99.90
57088;DHT22;42965;52.846;6.614;2022-11-15T06:29:14;10.30;99.90
57088;DHT22;42965;52.846;6.614;2022-11-15T06:32:00;10.30;99.90
57088;DHT22;42965;52.846;6.614;2022-11-15T06:34:45;10.40;99.90
57088;DHT22;42965;52.846;6.614;2022-11-15T06:37:29;10.40;99.90
57088;DHT22;42965;52.846;6.614;2022-11-15T06:40:14;10.40;99.90
57088;DHT22;42965;52.846;6.614;2022-11-15T06:42:59;10.40;99.90
57088;DHT22;42965;52.846;6.614;2022-11-15T06:45:44;10.40;99.90
57088;DHT22;42965;52.846;6.614;2022-11-15T06:48:30;10.50;99.90
57088;DHT22;42965;52.846;6.614;2022-11-15T06:51:15;10.50;99.90
57088;DHT22;42965;52.846;6.614;2022-11-15T06:54:00;10.50;99.90
57088;DHT22;42965;52.846;6.614;2022-11-15T06:56:46;10.50;99.90
57088;DHT22;42965;52.846;6.614;2022-11-15T06:59:31;10.50;99.90
57088;DHT22;42965;52.846;6.614;2022-11-15T07:02:16;10.50;99.90
57088;DHT22;42965;52.846;6.614;2022-11-15T07:05:01;10.50;99.90
57088;DHT22;42965;52.846;6.614;2022-11-15T07:07:51;10.50;99.90
57088;DHT22;42965;52.846;6.614;2022-11-15T07:10:36;10.60;99.90
57088;DHT22;42965;52.846;6.614;2022-11-15T07:13:25;10.60;99.90
57088;DHT22;42965;52.846;6.614;2022-11-15T07:16:11;10.60;99.90
57088;DHT22;42965;52.846;6.614;2022-11-15T07:18:56;10.60;99.90
57088;DHT22;42965;52.846;6.614;2022-11-15T07:22:00;10.60;99.90
57088;DHT22;42965;52.846;6.614;2022-11-15T07:24:45;10.70;99.90
57088;DHT22;42965;52.846;6.614;2022-11-15T07:27:31;10.70;99.90
57088;DHT22;42965;52.846;6.614;2022-11-15T07:30:16;10.70;99.90
57088;DHT22;42965;52.846;6.614;2022-11-15T07:33:01;10.70;99.90
57088;DHT22;42965;52.846;6.614;2022-11-15T07:35:46;10.70;99.90
57088;DHT22;42965;52.846;6.614;2022-11-15T07:38:35;10.70;99.90
57088;DHT22;42965;52.846;6.614;2022-11-15T07:41:20;10.80;99.90
57088;DHT22;42965;52.846;6.614;2022-11-15T07:44:05;10.80;99.90
57088;DHT22;42965;52.846;6.614;2022-11-15T07:46:50;10.70;99.90
57088;DHT22;42965;52.846;6.614;2022-11-15T07:49:37;10.80;99.90
57088;DHT22;42965;52.846;6.614;2022-11-15T07:52:21;10.80;99.90
57088;DHT22;42965;52.846;6.614;2022-11-15T07:55:07;10.90;99.90
57088;DHT22;42965;52.846;6.614;2022-11-15T07:57:53;10.90;99.90
57088;DHT22;42965;52.846;6.614;2022-11-15T08:00:38;10.90;99.90
57088;DHT22;42965;52.846;6.614;2022-11-15T08:03:22;11.00;99.90
57088;DHT22;42965;52.846;6.614;2022-11-15T08:06:07;11.00;99.90
57088;DHT22;42965;52.846;6.614;2022-11-15T08:08:52;11.00;99.90
57088;DHT22;42965;52.846;6.614;2022-11-15T08:11:37;11.10;99.90
57088;DHT22;42965;52.846;6.614;2022-11-15T08:14:22;11.10;99.90
57088;DHT22;42965;52.846;6.614;2022-11-15T08:17:07;11.10;99.90
57088;DHT22;42965;52.846;6.614;2022-11-15T08:19:52;11.20;99.90
57088;DHT22;42965;52.846;6.614;2022-11-15T08:22:37;11.20;99.90
57088;DHT22;42965;52.846;6.614;2022-11-15T08:25:22;11.30;99.90
57088;DHT22;42965;52.846;6.614;2022-11-15T08:28:09;11.30;99.90
57088;DHT22;42965;52.846;6.614;2022-11-15T08:30:55;11.40;99.90
57088;DHT22;42965;52.846;6.614;2022-11-15T08:33:40;11.40;99.90
57088;DHT22;42965;52.846;6.614;2022-11-15T08:36:25;11.40;99.90
57088;DHT22;42965;52.846;6.614;2022-11-15T08:39:11;11.50;99.90
57088;DHT22;42965;52.846;6.614;2022-11-15T08:41:57;11.50;99.90
57088;DHT22;42965;52.846;6.614;2022-11-15T08:44:42;11.50;99.90
57088;DHT22;42965;52.846;6.614;2022-11-15T08:47:27;11.50;99.90
57088;DHT22;42965;52.846;6.614;2022-11-15T08:50:12;11.50;99.90
57088;DHT22;42965;52.846;6.614;2022-11-15T08:52:57;11.60;99.90
57088;DHT22;42965;52.846;6.614;2022-11-15T08:55:42;11.60;99.90
57088;DHT22;42965;52.846;6.614;2022-11-15T08:58:28;11.60;99.90
57088;DHT22;42965;52.846;6.614;2022-11-15T09:01:18;11.70;99.90
57088;DHT22;42965;52.846;6.614;2022-11-15T09:04:03;11.70;99.90
57088;DHT22;42965;52.846;6.614;2022-11-15T09:06:48;11.70;99.90
57088;DHT22;42965;52.846;6.614;2022-11-15T09:09:34;11.80;99.90
57088;DHT22;42965;52.846;6.614;2022-11-15T09:12:18;11.80;99.90
57088;DHT22;42965;52.846;6.614;2022-11-15T09:15:04;11.90;99.90
57088;DHT22;42965;52.846;6.614;2022-11-15T09:17:49;12.00;99.90
57088;DHT22;42965;52.846;6.614;2022-11-15T09:20:34;12.10;99.90
57088;DHT22;42965;52.846;6.614;2022-11-15T09:23:20;12.10;99.90
57088;DHT22;42965;52.846;6.614;2022-11-15T09:26:06;12.10;99.90
57088;DHT22;42965;52.846;6.614;2022-11-15T09:28:51;12.10;99.90
57088;DHT22;42965;52.846;6.614;2022-11-15T09:31:36;12.00;99.90
57088;DHT22;42965;52.846;6.614;2022-11-15T09:34:21;12.00;99.90
57088;DHT22;42965;52.846;6.614;2022-11-15T09:37:06;12.00;99.90
57088;DHT22;42965;52.846;6.614;2022-11-15T09:39:50;12.00;99.90
57088;DHT22;42965;52.846;6.614;2022-11-15T09:45:45;12.00;99.90
57088;DHT22;42965;52.846;6.614;2022-11-15T09:48:50;12.10;99.90
57088;DHT22;42965;52.846;6.614;2022-11-15T09:51:44;12.10;99.90
57088;DHT22;42965;52.846;6.614;2022-11-15T09:54:31;12.10;99.90
57088;DHT22;42965;52.846;6.614;2022-11-15T10:02:46;12.00;99.90
57088;DHT22;42965;52.846;6.614;2022-11-15T10:05:20;12.00;99.90
57088;DHT22;42965;52.846;6.614;2022-11-15T10:08:13;12.00;99.90
57088;DHT22;42965;52.846;6.614;2022-11-15T10:10:48;12.00;99.90
57088;DHT22;42965;52.846;6.614;2022-11-15T10:13:25;11.90;99.90
57088;DHT22;42965;52.846;6.614;2022-11-15T10:15:56;12.00;99.90
57088;DHT22;42965;52.846;6.614;2022-11-15T10:18:36;12.00;99.90
57088;DHT22;42965;52.846;6.614;2022-11-15T10:21:21;12.10;99.90
57088;DHT22;42965;52.846;6.614;2022-11-15T10:23:50;12.20;99.90
57088;DHT22;42965;52.846;6.614;2022-11-15T10:26:18;12.20;99.90
57088;DHT22;42965;52.846;6.614;2022-11-15T10:28:45;12.30;99.90
57088;DHT22;42965;52.846;6.614;2022-11-15T10:31:28;12.40;99.90
57088;DHT22;42965;52.846;6.614;2022-11-15T10:34:14;12.50;99.90
57088;DHT22;42965;52.846;6.614;2022-11-15T10:37:00;12.60;99.90
57088;DHT22;42965;52.846;6.614;2022-11-15T10:39:28;12.70;99.90
57088;DHT22;42965;52.846;6.614;2022-11-15T10:41:54;12.80;99.90
57088;DHT22;42965;52.846;6.614;2022-11-15T10:44:25;12.80;99.90
57088;DHT22;42965;52.846;6.614;2022-11-15T10:49:24;12.90;99.90
57088;DHT22;42965;52.846;6.614;2022-11-15T10:51:58;12.90;99.90
57088;DHT22;42965;52.846;6.614;2022-11-15T10:54:36;12.90;99.90
57088;DHT22;42965;52.846;6.614;2022-11-15T10:57:28;13.00;99.90
57088;DHT22;42965;52.846;6.614;2022-11-15T10:59:58;13.10;99.90
57088;DHT22;42965;52.846;6.614;2022-11-15T11:04:57;13.80;99.90
57088;DHT22;42965;52.846;6.614;2022-11-15T11:07:32;14.40;99.90
57088;DHT22;42965;52.846;6.614;2022-11-15T11:10:19;15.00;99.90
57088;DHT22;42965;52.846;6.614;2022-11-15T11:12:46;15.20;99.90
57088;DHT22;42965;52.846;6.614;2022-11-15T11:15:15;15.70;99.90
57088;DHT22;42965;52.846;6.614;2022-11-15T11:18:07;15.80;99.90
57088;DHT22;42965;52.846;6.614;2022-11-15T11:20:44;15.50;99.90
57088;DHT22;42965;52.846;6.614;2022-11-15T11:39:46;15.70;99.90
57088;DHT22;42965;52.846;6.614;2022-11-15T11:48:13;15.70;99.90
57088;DHT22;42965;52.846;6.614;2022-11-15T11:50:42;15.40;99.90
57088;DHT22;42965;52.846;6.614;2022-11-15T11:55:58;14.60;99.90
57088;DHT22;42965;52.846;6.614;2022-11-15T11:58:41;14.30;99.90
57088;DHT22;42965;52.846;6.614;2022-11-15T12:03:59;13.80;99.90
57088;DHT22;42965;52.846;6.614;2022-11-15T12:10:11;13.80;99.90
57088;DHT22;42965;52.846;6.614;2022-11-15T12:12:35;14.20;99.90
57088;DHT22;42965;52.846;6.614;2022-11-15T12:17:35;15.80;99.90
57088;DHT22;42965;52.846;6.614;2022-11-15T12:20:06;16.10;99.90
57088;DHT22;42965;52.846;6.614;2022-11-15T12:25:36;17.30;99.90
57088;DHT22;42965;52.846;6.614;2022-11-15T12:28:40;17.80;99.90
57088;DHT22;42965;52.846;6.614;2022-11-15T12:31:36;18.40;99.90
57088;DHT22;42965;52.846;6.614;2022-11-15T12:36:46;18.20;99.90
57088;DHT22;42965;52.846;6.614;2022-11-15T12:39:14;18.30;99.90
57088;DHT22;42965;52.846;6.614;2022-11-15T13:02:44;16.50;99.90
57088;DHT22;42965;52.846;6.614;2022-11-15T13:17:43;17.20;99.90
57088;DHT22;42965;52.846;6.614;2022-11-15T13:22:45;16.60;99.90
57088;DHT22;42965;52.846;6.614;2022-11-15T13:27:50;16.40;99.90
57088;DHT22;42965;52.846;6.614;2022-11-15T13:30:29;16.20;99.90
57088;DHT22;42965;52.846;6.614;2022-11-15T13:32:58;16.10;99.90
57088;DHT22;42965;52.846;6.614;2022-11-15T13:35:28;16.10;99.90
57088;DHT22;42965;52.846;6.614;2022-11-15T13:37:56;16.40;99.90
57088;DHT22;42965;52.846;6.614;2022-11-15T13:40:29;16.90;99.90
57088;DHT22;42965;52.846;6.614;2022-11-15T13:42:59;17.00;99.90
57088;DHT22;42965;52.846;6.614;2022-11-15T13:45:25;17.30;99.90
57088;DHT22;42965;52.846;6.614;2022-11-15T13:47:57;17.10;99.90
57088;DHT22;42965;52.846;6.614;2022-11-15T13:50:27;17.20;99.90
57088;DHT22;42965;52.846;6.614;2022-11-15T13:52:58;16.80;99.90
57088;DHT22;42965;52.846;6.614;2022-11-15T13:55:27;16.80;99.90
57088;DHT22;42965;52.846;6.614;2022-11-15T13:58:01;16.60;99.90
57088;DHT22;42965;52.846;6.614;2022-11-15T14:00:36;16.30;99.90
57088;DHT22;42965;52.846;6.614;2022-11-15T14:03:24;16.10;99.90
57088;DHT22;42965;52.846;6.614;2022-11-15T14:06:15;16.00;99.90
57088;DHT22;42965;52.846;6.614;2022-11-15T14:08:59;16.10;99.90
57088;DHT22;42965;52.846;6.614;2022-11-15T14:11:25;16.00;99.90
57088;DHT22;42965;52.846;6.614;2022-11-15T14:14:12;16.20;99.90
57088;DHT22;42965;52.846;6.614;2022-11-15T14:16:45;15.90;99.90
57088;DHT22;42965;52.846;6.614;2022-11-15T14:19:34;15.70;99.90
57088;DHT22;42965;52.846;6.614;2022-11-15T14:22:16;15.30;99.90
57088;DHT22;42965;52.846;6.614;2022-11-15T14:25:14;15.00;99.90
57088;DHT22;42965;52.846;6.614;2022-11-15T14:27:34;14.80;99.90
57088;DHT22;42965;52.846;6.614;2022-11-15T14:30:00;14.40;99.90
57088;DHT22;42965;52.846;6.614;2022-11-15T14:32:29;14.10;99.90
57088;DHT22;42965;52.846;6.614;2022-11-15T14:35:02;13.90;99.90
57088;DHT22;42965;52.846;6.614;2022-11-15T14:37:33;13.80;99.90
57088;DHT22;42965;52.846;6.614;2022-11-15T14:40:06;13.50;99.90
57088;DHT22;42965;52.846;6.614;2022-11-15T14:42:35;13.30;99.90
57088;DHT22;42965;52.846;6.614;2022-11-15T14:45:02;13.30;99.90
57088;DHT22;42965;52.846;6.614;2022-11-15T14:47:28;13.10;99.90
57088;DHT22;42965;52.846;6.614;2022-11-15T14:49:54;13.00;99.90
57088;DHT22;42965;52.846;6.614;2022-11-15T14:52:27;12.90;99.90
57088;DHT22;42965;52.846;6.614;2022-11-15T14:54:55;12.80;99.90
57088;DHT22;42965;52.846;6.614;2022-11-15T14:57:22;12.70;99.90
57088;DHT22;42965;52.846;6.614;2022-11-15T14:59:49;12.70;99.90
57088;DHT22;42965;52.846;6.614;2022-11-15T15:02:20;12.60;99.90
57088;DHT22;42965;52.846;6.614;2022-11-15T15:04:49;12.60;99.90
57088;DHT22;42965;52.846;6.614;2022-11-15T15:07:16;12.50;99.90
57088;DHT22;42965;52.846;6.614;2022-11-15T15:09:43;12.40;99.90
57088;DHT22;42965;52.846;6.614;2022-11-15T15:12:18;12.40;99.90
57088;DHT22;42965;52.846;6.614;2022-11-15T15:14:47;12.40;99.90
57088;DHT22;42965;52.846;6.614;2022-11-15T15:17:14;12.30;99.90
57088;DHT22;42965;52.846;6.614;2022-11-15T15:19:41;12.30;99.90
57088;DHT22;42965;52.846;6.614;2022-11-15T15:22:16;12.30;99.90
57088;DHT22;42965;52.846;6.614;2022-11-15T15:24:44;12.30;99.90
57088;DHT22;42965;52.846;6.614;2022-11-15T15:27:11;12.30;99.90
57088;DHT22;42965;52.846;6.614;2022-11-15T15:29:38;12.30;99.90
57088;DHT22;42965;52.846;6.614;2022-11-15T15:32:05;12.30;99.90
57088;DHT22;42965;52.846;6.614;2022-11-15T15:34:32;12.20;99.90
57088;DHT22;42965;52.846;6.614;2022-11-15T15:37:11;12.20;99.90
57088;DHT22;42965;52.846;6.614;2022-11-15T15:39:45;12.20;99.90
57088;DHT22;42965;52.846;6.614;2022-11-15T15:42:11;12.10;99.90
57088;DHT22;42965;52.846;6.614;2022-11-15T15:44:40;12.10;99.90
57088;DHT22;42965;52.846;6.614;2022-11-15T15:47:21;12.10;99.90
57088;DHT22;42965;52.846;6.614;2022-11-15T15:49:49;12.00;99.90
57088;DHT22;42965;52.846;6.614;2022-11-15T15:52:16;12.00;99.90
57088;DHT22;42965;52.846;6.614;2022-11-15T15:54:43;12.00;99.90
57088;DHT22;42965;52.846;6.614;2022-11-15T15:57:12;12.00;99.90
57088;DHT22;42965;52.846;6.614;2022-11-15T15:59:39;11.90;99.90
57088;DHT22;42965;52.846;6.614;2022-11-15T16:02:06;11.90;99.90
57088;DHT22;42965;52.846;6.614;2022-11-15T16:04:32;11.80;99.90
57088;DHT22;42965;52.846;6.614;2022-11-15T16:07:00;11.80;99.90
57088;DHT22;42965;52.846;6.614;2022-11-15T16:09:26;11.60;99.90
57088;DHT22;42965;52.846;6.614;2022-11-15T16:12:11;11.60;99.90
57088;DHT22;42965;52.846;6.614;2022-11-15T16:14:37;11.60;99.90
57088;DHT22;42965;52.846;6.614;2022-11-15T16:17:04;11.60;99.90
57088;DHT22;42965;52.846;6.614;2022-11-15T16:19:31;11.60;99.90
57088;DHT22;42965;52.846;6.614;2022-11-15T16:21:57;11.60;99.90
57088;DHT22;42965;52.846;6.614;2022-11-15T16:24:23;11.60;99.90
57088;DHT22;42965;52.846;6.614;2022-11-15T16:26:50;11.60;99.90
57088;DHT22;42965;52.846;6.614;2022-11-15T16:29:17;11.60;99.90
57088;DHT22;42965;52.846;6.614;2022-11-15T16:31:43;11.60;99.90
57088;DHT22;42965;52.846;6.614;2022-11-15T16:34:12;11.60;99.90
57088;DHT22;42965;52.846;6.614;2022-11-15T16:36:38;11.70;99.90
57088;DHT22;42965;52.846;6.614;2022-11-15T16:39:05;11.60;99.90
57088;DHT22;42965;52.846;6.614;2022-11-15T16:41:31;11.60;99.90
57088;DHT22;42965;52.846;6.614;2022-11-15T16:43:57;11.60;99.90
57088;DHT22;42965;52.846;6.614;2022-11-15T16:46:25;11.60;99.90
57088;DHT22;42965;52.846;6.614;2022-11-15T16:48:52;11.60;99.90
57088;DHT22;42965;52.846;6.614;2022-11-15T16:51:19;11.60;99.90
57088;DHT22;42965;52.846;6.614;2022-11-15T16:53:46;11.60;99.90
57088;DHT22;42965;52.846;6.614;2022-11-15T16:56:18;11.60;99.90
57088;DHT22;42965;52.846;6.614;2022-11-15T16:58:45;11.60;99.90
57088;DHT22;42965;52.846;6.614;2022-11-15T17:01:19;11.60;99.90
57088;DHT22;42965;52.846;6.614;2022-11-15T17:03:47;11.60;99.90
57088;DHT22;42965;52.846;6.614;2022-11-15T17:06:14;11.60;99.90
57088;DHT22;42965;52.846;6.614;2022-11-15T17:08:41;11.60;99.90
57088;DHT22;42965;52.846;6.614;2022-11-15T17:11:07;11.60;99.90
57088;DHT22;42965;52.846;6.614;2022-11-15T17:13:34;11.60;99.90
57088;DHT22;42965;52.846;6.614;2022-11-15T17:16:12;11.70;99.90
57088;DHT22;42965;52.846;6.614;2022-11-15T17:18:39;11.70;99.90
57088;DHT22;42965;52.846;6.614;2022-11-15T17:21:09;11.70;99.90
57088;DHT22;42965;52.846;6.614;2022-11-15T17:23:37;11.70;99.90
57088;DHT22;42965;52.846;6.614;2022-11-15T17:26:04;11.80;99.90
57088;DHT22;42965;52.846;6.614;2022-11-15T17:28:32;11.80;99.90
57088;DHT22;42965;52.846;6.614;2022-11-15T17:30:58;11.80;99.90
57088;DHT22;42965;52.846;6.614;2022-11-15T17:33:25;11.80;99.90
57088;DHT22;42965;52.846;6.614;2022-11-15T17:35:59;11.80;99.90
57088;DHT22;42965;52.846;6.614;2022-11-15T17:38:27;11.80;99.90
57088;DHT22;42965;52.846;6.614;2022-11-15T17:41:09;11.70;99.90
57088;DHT22;42965;52.846;6.614;2022-11-15T17:43:37;11.70;99.90
57088;DHT22;42965;52.846;6.614;2022-11-15T17:46:09;11.80;99.90
57088;DHT22;42965;52.846;6.614;2022-11-15T17:48:36;11.80;99.90
57088;DHT22;42965;52.846;6.614;2022-11-15T17:51:04;11.70;99.90
57088;DHT22;42965;52.846;6.614;2022-11-15T17:53:33;11.70;99.90
57088;DHT22;42965;52.846;6.614;2022-11-15T17:56:11;11.70;99.90
57088;DHT22;42965;52.846;6.614;2022-11-15T17:58:38;11.70;99.90
57088;DHT22;42965;52.846;6.614;2022-11-15T18:01:25;11.70;99.90
57088;DHT22;42965;52.846;6.614;2022-11-15T18:03:52;11.80;99.90
57088;DHT22;42965;52.846;6.614;2022-11-15T18:06:19;11.70;99.90
57088;DHT22;42965;52.846;6.614;2022-11-15T18:08:49;11.70;99.90
57088;DHT22;42965;52.846;6.614;2022-11-15T18:11:24;11.70;99.90
57088;DHT22;42965;52.846;6.614;2022-11-15T18:13:54;11.70;99.90
57088;DHT22;42965;52.846;6.614;2022-11-15T18:16:22;11.70;99.90
57088;DHT22;42965;52.846;6.614;2022-11-15T18:18:51;11.70;99.90
57088;DHT22;42965;52.846;6.614;2022-11-15T18:21:21;11.70;99.90
57088;DHT22;42965;52.846;6.614;2022-11-15T18:23:51;11.70;99.90
57088;DHT22;42965;52.846;6.614;2022-11-15T18:26:18;11.70;99.90
57088;DHT22;42965;52.846;6.614;2022-11-15T18:28:47;11.60;99.90
57088;DHT22;42965;52.846;6.614;2022-11-15T18:33:43;11.70;99.90
57088;DHT22;42965;52.846;6.614;2022-11-15T18:36:12;11.70;99.90
57088;DHT22;42965;52.846;6.614;2022-11-15T18:38:39;11.60;99.90
57088;DHT22;42965;52.846;6.614;2022-11-15T18:41:16;11.70;99.90
57088;DHT22;42965;52.846;6.614;2022-11-15T18:43:46;11.60;99.90
57088;DHT22;42965;52.846;6.614;2022-11-15T18:46:18;11.60;99.90
57088;DHT22;42965;52.846;6.614;2022-11-15T18:48:46;11.70;99.90
57088;DHT22;42965;52.846;6.614;2022-11-15T18:51:20;11.70;99.90
57088;DHT22;42965;52.846;6.614;2022-11-15T18:53:47;11.70;99.90
57088;DHT22;42965;52.846;6.614;2022-11-15T18:56:18;11.70;99.90
57088;DHT22;42965;52.846;6.614;2022-11-15T18:58:55;11.70;99.90